createdAt,value
2024-04-01T00:00:39.252Z,34.73
2024-04-01T00:01:41.073Z,36.03
2024-04-01T00:02:43.063Z,33.28
2024-04-01T00:03:45.905Z,35.15
2024-04-01T00:04:47.706Z,36.88
2024-04-01T00:05:53.240Z,38.53
2024-04-01T00:06:54.812Z,33.18
2024-04-01T00:07:57.684Z,32.92
2024-04-01T00:08:59.331Z,32.80
2024-04-01T00:10:01.020Z,33.37
2024-04-01T00:11:03.020Z,35.93
2024-04-01T00:12:06.437Z,32.92
2024-04-01T00:13:30.634Z,34.00
2024-04-01T00:14:34.396Z,33.57
2024-04-01T00:15:36.610Z,35.17
2024-04-01T00:16:39.644Z,37.00
2024-04-01T00:17:41.041Z,35.20
2024-04-01T00:18:42.506Z,35.38
2024-04-01T00:19:43.853Z,36.35
2024-04-01T00:20:56.629Z,39.05
2024-04-01T00:21:59.767Z,36.35
2024-04-01T00:23:03.788Z,38.10
2024-04-01T00:24:05.843Z,36.03
2024-04-01T00:25:15.589Z,37.33
2024-04-01T00:26:16.960Z,37.30
2024-04-01T00:27:19.797Z,37.55
2024-04-01T00:28:21.978Z,39.67
2024-04-01T00:29:25.116Z,40.18
2024-04-01T00:30:32.392Z,38.78
2024-04-01T00:31:37.273Z,39.63
2024-04-01T00:32:56.508Z,36.57
2024-04-01T00:34:06.034Z,38.87
2024-04-01T00:35:14.678Z,38.48
2024-04-01T00:36:18.804Z,37.30
2024-04-01T00:37:23.864Z,35.27
2024-04-01T00:38:25.411Z,40.08
2024-04-01T00:39:26.987Z,38.53
2024-04-01T00:40:28.674Z,38.77
2024-04-01T00:41:31.314Z,38.30
2024-04-01T00:42:33.721Z,39.08
2024-04-01T00:43:35.508Z,42.48
2024-04-01T00:44:37.198Z,37.90
2024-04-01T00:45:44.574Z,38.37
2024-04-01T00:46:46.392Z,39.35
2024-04-01T00:47:48.474Z,37.98
2024-04-01T00:48:52.840Z,40.67
2024-04-01T00:49:55.872Z,37.05
2024-04-01T00:51:10.859Z,38.23
2024-04-01T00:52:13.775Z,44.65
2024-04-01T00:53:20.260Z,40.92
2024-04-01T00:54:22.540Z,41.83
2024-04-01T00:55:24.752Z,41.32
2024-04-01T00:56:29.206Z,40.45
2024-04-01T00:57:46.258Z,39.12
2024-04-01T00:58:48.007Z,36.83
2024-04-01T00:59:54.082Z,40.82
2024-04-01T01:00:58.966Z,41.63
2024-04-01T01:02:03.031Z,38.78
2024-04-01T01:03:07.233Z,39.07
2024-04-01T01:04:08.938Z,40.32
2024-04-01T01:05:15.804Z,39.98
2024-04-01T01:06:18.675Z,38.92
2024-04-01T01:07:21.275Z,39.93
2024-04-01T01:08:24.879Z,40.40
2024-04-01T01:09:41.293Z,41.42
2024-04-01T01:10:43.256Z,43.55
2024-04-01T01:11:45.170Z,40.03
2024-04-01T01:12:47.009Z,42.52
2024-04-01T01:13:49.452Z,40.90
2024-04-01T01:14:51.325Z,41.47
2024-04-01T01:15:53.074Z,39.47
2024-04-01T01:16:56.438Z,37.50
2024-04-01T01:17:59.756Z,42.38
2024-04-01T01:19:01.376Z,39.92
2024-04-01T01:20:03.768Z,40.95
2024-04-01T01:21:05.633Z,43.63
2024-04-01T01:22:09.571Z,46.58
2024-04-01T01:23:12.441Z,44.78
2024-04-01T01:24:14.202Z,41.15
2024-04-01T01:25:15.582Z,41.65
2024-04-01T01:26:18.514Z,43.82
2024-04-01T01:27:20.088Z,40.82
2024-04-01T01:28:37.024Z,40.03
2024-04-01T01:29:38.746Z,38.38
2024-04-01T01:30:41.592Z,42.48
2024-04-01T01:31:43.470Z,40.47
2024-04-01T01:32:47.886Z,42.65
2024-04-01T01:33:49.968Z,41.67
2024-04-01T01:34:54.678Z,41.65
2024-04-01T01:35:57.460Z,41.15
2024-04-01T01:36:59.140Z,46.32
2024-04-01T01:38:00.924Z,43.47
2024-04-01T01:39:05.913Z,41.87
2024-04-01T01:40:08.817Z,39.48
2024-04-01T01:41:10.688Z,40.38
2024-04-01T01:42:12.551Z,39.00
2024-04-01T01:43:15.376Z,43.53
2024-04-01T01:44:16.979Z,42.20
2024-04-01T01:45:18.649Z,42.50
2024-04-01T01:46:20.369Z,41.07
2024-04-01T01:47:22.786Z,42.45
2024-04-01T01:48:24.500Z,44.68
2024-04-01T01:49:25.974Z,40.97
2024-04-01T01:50:29.473Z,40.67
2024-04-01T01:51:31.382Z,43.30
2024-04-01T01:52:34.112Z,43.62
2024-04-01T01:53:36.566Z,42.30
2024-04-01T01:54:39.552Z,43.97
2024-04-01T01:55:40.929Z,43.08
2024-04-01T01:56:57.388Z,42.63
2024-04-01T01:57:59.839Z,40.17
2024-04-01T01:59:02.844Z,41.47
2024-04-01T02:00:05.909Z,45.65
2024-04-01T02:01:07.620Z,45.90
2024-04-01T02:02:11.082Z,43.27
2024-04-01T02:03:14.844Z,47.58
2024-04-01T02:04:17.812Z,45.47
2024-04-01T02:05:19.390Z,41.77
2024-04-01T02:06:22.737Z,42.98
2024-04-01T02:07:24.152Z,43.10
2024-04-01T02:08:25.785Z,46.40
2024-04-01T02:09:27.394Z,40.37
2024-04-01T02:10:36.079Z,43.33
2024-04-01T02:11:37.602Z,43.12
2024-04-01T02:12:53.153Z,42.40
2024-04-01T02:13:54.955Z,40.30
2024-04-01T02:14:57.671Z,42.93
2024-04-01T02:16:07.166Z,46.28
2024-04-01T02:17:08.869Z,45.82
2024-04-01T02:18:11.773Z,42.63
2024-04-01T02:19:13.728Z,44.45
2024-04-01T02:20:16.157Z,43.47
2024-04-01T02:21:18.702Z,45.68
2024-04-01T02:22:22.871Z,44.02
2024-04-01T02:23:29.613Z,44.85
2024-04-01T02:24:31.339Z,42.47
2024-04-01T02:25:34.396Z,45.95
2024-04-01T02:26:51.199Z,48.43
2024-04-01T02:27:53.803Z,44.67
2024-04-01T02:28:55.660Z,46.23
2024-04-01T02:29:57.217Z,43.17
2024-04-01T02:30:59.713Z,43.27
2024-04-01T02:32:02.749Z,41.65
2024-04-01T02:33:04.680Z,42.77
2024-04-01T02:34:06.788Z,46.27
2024-04-01T02:35:09.250Z,48.15
2024-04-01T02:36:11.012Z,43.68
2024-04-01T02:37:12.463Z,42.90
2024-04-01T02:38:14.312Z,44.33
2024-04-01T02:39:17.866Z,41.80
2024-04-01T02:40:19.545Z,42.47
2024-04-01T02:41:22.557Z,43.02
2024-04-01T02:42:25.708Z,49.93
2024-04-01T02:43:27.035Z,45.23
2024-04-01T02:44:28.429Z,43.93
2024-04-01T02:45:30.448Z,45.35
2024-04-01T02:46:33.456Z,42.57
2024-04-01T02:47:35.097Z,44.15
2024-04-01T02:48:36.951Z,41.62
2024-04-01T02:49:39.371Z,42.12
2024-04-01T02:50:42.552Z,42.18
2024-04-01T02:51:44.538Z,41.70
2024-04-01T02:52:48.162Z,43.38
2024-04-01T02:53:51.129Z,45.68
2024-04-01T02:54:52.685Z,50.03
2024-04-01T02:55:55.065Z,49.20
2024-04-01T02:56:58.377Z,44.35
2024-04-01T02:58:01.413Z,44.77
2024-04-01T02:59:04.297Z,46.30
2024-04-01T03:00:08.153Z,44.70
2024-04-01T03:01:10.552Z,43.50
2024-04-01T03:02:13.774Z,47.55
2024-04-01T03:03:15.434Z,50.42
2024-04-01T03:04:20.160Z,46.05
2024-04-01T03:05:22.517Z,47.27
2024-04-01T03:06:25.336Z,46.72
2024-04-01T03:07:26.923Z,44.35
2024-04-01T03:08:28.711Z,48.45
2024-04-01T03:09:30.459Z,48.92
2024-04-01T03:10:33.437Z,50.70
2024-04-01T03:11:34.786Z,48.63
2024-04-01T03:12:37.916Z,45.43
2024-04-01T03:13:39.224Z,46.60
2024-04-01T03:14:41.834Z,50.35
2024-04-01T03:15:45.274Z,47.60
2024-04-01T03:16:47.101Z,47.07
2024-04-01T03:17:48.657Z,44.55
2024-04-01T03:18:51.424Z,46.25
2024-04-01T03:19:53.013Z,49.43
2024-04-01T03:20:54.575Z,48.48
2024-04-01T03:21:56.403Z,44.33
2024-04-01T03:22:59.002Z,42.08
2024-04-01T03:24:00.727Z,43.80
2024-04-01T03:25:02.564Z,43.50
2024-04-01T03:26:06.450Z,46.32
2024-04-01T03:27:08.124Z,43.75
2024-04-01T03:28:11.840Z,47.40
2024-04-01T03:29:13.723Z,45.13
2024-04-01T03:30:16.448Z,46.73
2024-04-01T03:31:18.195Z,46.03
2024-04-01T03:32:20.452Z,45.47
2024-04-01T03:33:22.580Z,46.05
2024-04-01T03:34:25.336Z,44.20
2024-04-01T03:35:27.511Z,48.73
2024-04-01T03:36:30.819Z,44.75
2024-04-01T03:37:33.245Z,44.32
2024-04-01T03:38:35.126Z,44.70
2024-04-01T03:39:37.381Z,45.22
2024-04-01T03:40:40.327Z,42.68
2024-04-01T03:41:42.052Z,40.05
2024-04-01T03:42:44.775Z,40.13
2024-04-01T03:43:48.064Z,42.70
2024-04-01T03:44:53.475Z,45.75
2024-04-01T03:45:58.517Z,45.25
2024-04-01T03:47:00.502Z,46.07
2024-04-01T03:48:02.723Z,40.82
2024-04-01T03:49:05.355Z,45.53
2024-04-01T03:50:08.178Z,43.85
2024-04-01T03:51:09.818Z,41.35
2024-04-01T03:52:11.556Z,40.65
2024-04-01T03:53:26.322Z,45.65
2024-04-01T03:54:28.762Z,43.80
2024-04-01T03:55:31.212Z,42.58
2024-04-01T03:56:34.136Z,42.98
2024-04-01T03:57:35.714Z,41.98
2024-04-01T03:58:37.502Z,40.92
2024-04-01T03:59:42.812Z,40.12
2024-04-01T04:00:44.746Z,43.95
2024-04-01T04:01:46.636Z,40.95
2024-04-01T04:02:48.134Z,38.63
2024-04-01T04:03:52.693Z,39.80
2024-04-01T04:04:54.041Z,38.53
2024-04-01T04:05:55.469Z,38.92
2024-04-01T04:06:57.327Z,37.92
2024-04-01T04:07:59.799Z,39.48
2024-04-01T04:09:02.177Z,41.38
2024-04-01T04:10:04.596Z,41.68
2024-04-01T04:11:07.540Z,41.13
2024-04-01T04:12:11.236Z,40.78
2024-04-01T04:13:15.124Z,40.95
2024-04-01T04:14:18.449Z,37.85
2024-04-01T04:15:22.621Z,42.22
2024-04-01T04:16:25.463Z,41.38
2024-04-01T04:17:27.318Z,39.55
2024-04-01T04:18:29.563Z,40.37
2024-04-01T04:19:31.227Z,39.32
2024-04-01T04:20:36.059Z,38.85
2024-04-01T04:21:38.415Z,38.25
2024-04-01T04:22:40.160Z,35.28
2024-04-01T04:23:41.666Z,33.05
2024-04-01T04:24:44.651Z,35.75
2024-04-01T04:25:46.248Z,37.78
2024-04-01T04:26:49.055Z,35.87
2024-04-01T04:27:53.575Z,34.57
2024-04-01T04:28:57.190Z,35.58
2024-04-01T04:29:59.705Z,36.45
2024-04-01T04:31:03.656Z,35.38
2024-04-01T04:32:11.343Z,32.70
2024-04-01T04:33:13.092Z,34.23
2024-04-01T04:34:15.194Z,33.28
2024-04-01T04:35:17.772Z,34.40
2024-04-01T04:36:21.129Z,31.50
2024-04-01T04:37:22.919Z,32.85
2024-04-01T04:38:26.097Z,32.63
2024-04-01T04:39:27.817Z,33.62
2024-04-01T04:40:31.226Z,35.32
2024-04-01T04:41:32.970Z,30.15
2024-04-01T04:42:34.580Z,30.15
2024-04-01T04:43:36.212Z,29.85
2024-04-01T04:44:39.149Z,28.08
2024-04-01T04:45:48.237Z,30.33
2024-04-01T04:46:51.439Z,32.53
2024-04-01T04:47:55.063Z,32.35
2024-04-01T04:48:56.841Z,31.98
2024-04-01T04:50:01.369Z,29.70
2024-04-01T04:51:05.152Z,29.43
2024-04-01T04:52:08.165Z,28.95
2024-04-01T04:53:10.422Z,27.75
2024-04-01T04:54:12.364Z,28.75
2024-04-01T04:55:15.435Z,30.52
2024-04-01T04:56:16.967Z,29.93
2024-04-01T04:57:18.861Z,27.72
2024-04-01T04:58:20.897Z,30.30
2024-04-01T04:59:23.640Z,30.60
2024-04-01T05:00:25.459Z,31.62
2024-04-01T05:01:27.316Z,30.62
2024-04-01T05:02:31.689Z,31.88
2024-04-01T05:03:34.438Z,28.97
2024-04-01T05:04:36.437Z,27.90
2024-04-01T05:05:38.209Z,27.87
2024-04-01T05:06:42.648Z,29.78
2024-04-01T05:07:45.567Z,32.03
2024-04-01T05:08:47.028Z,28.08
2024-04-01T05:09:49.776Z,28.67
2024-04-01T05:10:51.848Z,32.30
2024-04-01T05:11:54.242Z,33.32
2024-04-01T05:12:55.976Z,31.70
2024-04-01T05:14:01.714Z,29.42
2024-04-01T05:15:05.836Z,33.37
2024-04-01T05:16:07.973Z,31.93
2024-04-01T05:17:09.381Z,31.83
2024-04-01T05:18:15.574Z,30.47
2024-04-01T05:19:17.407Z,32.22
2024-04-01T05:20:19.173Z,30.70
2024-04-01T05:21:20.838Z,30.75
2024-04-01T05:22:22.764Z,30.05
2024-04-01T05:23:26.061Z,32.18
2024-04-01T05:24:27.800Z,30.92
2024-04-01T05:25:29.713Z,31.52
2024-04-01T05:26:32.326Z,31.63
2024-04-01T05:27:35.331Z,33.27
2024-04-01T05:28:37.084Z,29.37
2024-04-01T05:29:39.070Z,30.53
2024-04-01T05:30:41.594Z,29.27
2024-04-01T05:31:43.435Z,27.52
2024-04-01T05:32:45.200Z,28.42
2024-04-01T05:33:49.459Z,32.23
2024-04-01T05:34:51.464Z,32.20
2024-04-01T05:35:53.198Z,34.22
2024-04-01T05:36:57.488Z,33.18
2024-04-01T05:38:00.490Z,30.82
2024-04-01T05:39:03.799Z,30.32
2024-04-01T05:40:06.269Z,31.17
2024-04-01T05:41:07.837Z,29.23
2024-04-01T05:42:10.530Z,29.28
2024-04-01T05:43:12.326Z,28.48
2024-04-01T05:44:15.030Z,30.15
2024-04-01T05:45:17.421Z,30.12
2024-04-01T05:46:20.448Z,30.23
2024-04-01T05:47:22.180Z,29.00
2024-04-01T05:48:23.855Z,30.20
2024-04-01T05:49:26.803Z,29.85
2024-04-01T05:50:29.532Z,30.77
2024-04-01T05:51:31.084Z,31.02
2024-04-01T05:52:32.790Z,30.12
2024-04-01T05:53:34.478Z,29.53
2024-04-01T05:54:37.497Z,33.18
2024-04-01T05:55:40.246Z,29.17
2024-04-01T05:56:41.717Z,30.38
2024-04-01T05:57:44.397Z,28.22
2024-04-01T05:58:46.235Z,29.03
2024-04-01T05:59:48.402Z,29.78
2024-04-01T06:00:51.186Z,30.40
2024-04-01T06:01:53.210Z,31.35
2024-04-01T06:02:55.238Z,29.55
2024-04-01T06:03:58.063Z,31.85
2024-04-01T06:05:01.141Z,29.27
2024-04-01T06:06:03.129Z,29.70
2024-04-01T06:07:05.621Z,27.32
2024-04-01T06:08:07.570Z,27.93
2024-04-01T06:09:09.763Z,30.48
2024-04-01T06:10:13.452Z,29.67
2024-04-01T06:11:15.170Z,31.40
2024-04-01T06:12:16.802Z,29.18
2024-04-01T06:13:19.758Z,29.70
2024-04-01T06:14:21.155Z,30.08
2024-04-01T06:15:22.907Z,28.43
2024-04-01T06:16:24.834Z,30.43
2024-04-01T06:17:27.657Z,29.42
2024-04-01T06:18:29.123Z,28.62
2024-04-01T06:19:30.611Z,26.95
2024-04-01T06:20:33.990Z,27.05
2024-04-01T06:21:36.679Z,28.83
2024-04-01T06:22:38.371Z,28.10
2024-04-01T06:23:40.115Z,27.65
2024-04-01T06:24:42.953Z,27.72
2024-04-01T06:25:44.844Z,26.97
2024-04-01T06:26:46.695Z,28.07
2024-04-01T06:27:48.545Z,28.60
2024-04-01T06:28:51.528Z,27.28
2024-04-01T06:29:53.276Z,28.57
2024-04-01T06:30:54.944Z,29.43
2024-04-01T06:31:56.688Z,31.87
2024-04-01T06:32:59.543Z,27.62
2024-04-01T06:34:01.355Z,28.67
2024-04-01T06:35:03.514Z,28.32
2024-04-01T06:36:08.573Z,28.60
2024-04-01T06:37:10.004Z,27.50
2024-04-01T06:38:12.578Z,26.88
2024-04-01T06:39:15.569Z,26.98
2024-04-01T06:40:18.467Z,28.02
2024-04-01T06:41:20.259Z,28.55
2024-04-01T06:42:25.212Z,28.98
2024-04-01T06:43:27.932Z,27.02
2024-04-01T06:44:30.431Z,30.45
2024-04-01T06:45:31.956Z,29.22
2024-04-01T06:46:34.743Z,29.20
2024-04-01T06:47:36.662Z,30.68
2024-04-01T06:48:38.499Z,30.23
2024-04-01T06:49:41.493Z,28.58
2024-04-01T06:50:43.105Z,28.12
2024-04-01T06:51:46.084Z,27.65
2024-04-01T06:52:47.735Z,27.48
2024-04-01T06:53:50.749Z,27.33
2024-04-01T06:54:52.797Z,32.30
2024-04-01T06:55:54.734Z,31.10
2024-04-01T06:56:57.800Z,28.77
2024-04-01T06:58:00.638Z,27.42
2024-04-01T06:59:02.724Z,29.68
2024-04-01T07:00:05.557Z,30.43
2024-04-01T07:01:09.618Z,27.73
2024-04-01T07:02:11.881Z,27.70
2024-04-01T07:03:14.057Z,29.87
2024-04-01T07:04:17.122Z,30.98
2024-04-01T07:05:18.763Z,31.43
2024-04-01T07:06:20.610Z,30.57
2024-04-01T07:07:27.929Z,30.90
2024-04-01T07:08:30.188Z,29.93
2024-04-01T07:09:32.516Z,29.82
2024-04-01T07:10:34.535Z,26.80
2024-04-01T07:11:37.822Z,32.12
2024-04-01T07:12:39.560Z,30.63
2024-04-01T07:13:41.667Z,29.30
2024-04-01T07:14:43.898Z,30.25
2024-04-01T07:15:46.334Z,29.05
2024-04-01T07:16:49.421Z,30.47
2024-04-01T07:17:51.794Z,29.63
2024-04-01T07:18:53.269Z,29.12
2024-04-01T07:19:55.139Z,29.82
2024-04-01T07:20:58.480Z,29.27
2024-04-01T07:21:59.995Z,29.83
2024-04-01T07:23:03.263Z,30.62
2024-04-01T07:24:06.675Z,30.95
2024-04-01T07:25:08.219Z,33.20
2024-04-01T07:26:10.140Z,29.93
2024-04-01T07:27:12.485Z,28.05
2024-04-01T07:28:15.325Z,30.60
2024-04-01T07:29:17.102Z,30.18
2024-04-01T07:30:18.914Z,32.87
2024-04-01T07:31:21.024Z,33.12
2024-04-01T07:32:24.068Z,35.00
2024-04-01T07:33:26.031Z,31.82
2024-04-01T07:34:27.657Z,31.10
2024-04-01T07:35:52.124Z,30.68
2024-04-01T07:36:54.102Z,32.90
2024-04-01T07:37:55.852Z,31.65
2024-04-01T07:39:00.036Z,30.47
2024-04-01T07:40:01.591Z,31.35
2024-04-01T07:41:03.474Z,30.57
2024-04-01T07:42:07.052Z,32.60
2024-04-01T07:43:08.855Z,29.25
2024-04-01T07:44:10.589Z,31.37
2024-04-01T07:45:12.468Z,31.45
2024-04-01T07:46:15.071Z,31.17
2024-04-01T07:47:17.242Z,31.95
2024-04-01T07:48:19.031Z,32.92
2024-04-01T07:49:22.368Z,32.73
2024-04-01T07:50:23.920Z,33.20
2024-04-01T07:51:25.445Z,33.90
2024-04-01T07:52:43.326Z,32.72
2024-04-01T07:53:44.778Z,35.22
2024-04-01T07:54:48.093Z,33.37
2024-04-01T07:55:50.728Z,32.55
2024-04-01T07:56:52.307Z,31.90
2024-04-01T07:57:54.090Z,34.77
2024-04-01T07:58:57.221Z,33.40
2024-04-01T08:00:03.407Z,34.58
2024-04-01T08:01:05.988Z,35.05
2024-04-01T08:02:07.739Z,35.05
2024-04-01T08:03:09.514Z,31.90
2024-04-01T08:04:14.135Z,32.57
2024-04-01T08:05:16.104Z,34.00
2024-04-01T08:06:17.874Z,33.92
2024-04-01T08:07:20.066Z,36.12
2024-04-01T08:08:22.486Z,36.70
2024-04-01T08:09:24.287Z,35.50
2024-04-01T08:10:46.247Z,36.02
2024-04-01T08:11:49.384Z,34.42
2024-04-01T08:12:51.040Z,33.93
2024-04-01T08:13:53.576Z,36.50
2024-04-01T08:14:55.124Z,38.68
2024-04-01T08:16:02.171Z,38.95
2024-04-01T08:17:04.403Z,39.28
2024-04-01T08:18:06.363Z,36.95
2024-04-01T08:19:07.830Z,38.28
2024-04-01T08:20:10.666Z,41.38
2024-04-01T08:21:12.113Z,39.38
2024-04-01T08:22:13.879Z,40.37
2024-04-01T08:23:15.399Z,41.32
2024-04-01T08:24:18.361Z,38.68
2024-04-01T08:25:20.020Z,38.33
2024-04-01T08:26:23.242Z,40.30
2024-04-01T08:27:25.057Z,43.02
2024-04-01T08:28:32.852Z,41.95
2024-04-01T08:29:34.720Z,41.85
2024-04-01T08:30:36.670Z,45.40
2024-04-01T08:31:39.398Z,40.95
2024-04-01T08:32:40.847Z,41.05
2024-04-01T08:33:42.695Z,42.15
2024-04-01T08:34:44.191Z,43.20
2024-04-01T08:35:46.865Z,45.12
2024-04-01T08:36:48.575Z,43.38
2024-04-01T08:37:50.338Z,43.53
2024-04-01T08:38:52.086Z,45.30
2024-04-01T08:39:55.287Z,44.85
2024-04-01T08:40:58.475Z,44.80
2024-04-01T08:42:04.344Z,44.85
2024-04-01T08:43:13.866Z,48.55
2024-04-01T08:44:31.219Z,48.10
2024-04-01T08:45:34.959Z,46.97
2024-04-01T08:46:40.446Z,49.62
2024-04-01T08:47:45.660Z,44.15
2024-04-01T08:48:51.287Z,44.78
2024-04-01T08:50:04.931Z,44.28
2024-04-01T08:51:07.622Z,43.37
2024-04-01T08:52:22.248Z,45.23
2024-04-01T08:53:38.438Z,44.53
2024-04-01T08:54:41.047Z,44.62
2024-04-01T08:55:43.995Z,44.17
2024-04-01T08:56:45.571Z,46.40
2024-04-01T08:57:49.747Z,51.08
2024-04-01T08:58:53.509Z,48.30
2024-04-01T08:59:57.035Z,54.23
2024-04-01T09:00:59.046Z,48.83
2024-04-01T09:02:02.175Z,48.97
2024-04-01T09:03:05.179Z,50.63
2024-04-01T09:04:06.860Z,49.90
2024-04-01T09:05:08.628Z,51.80
2024-04-01T09:06:11.602Z,51.40
2024-04-01T09:07:14.640Z,52.95
2024-04-01T09:08:16.747Z,51.17
2024-04-01T09:09:18.812Z,49.15
2024-04-01T09:10:22.498Z,46.27
2024-04-01T09:11:25.742Z,49.57
2024-04-01T09:12:27.722Z,48.82
2024-04-01T09:13:33.278Z,45.20
2024-04-01T09:14:36.037Z,48.87
2024-04-01T09:15:37.640Z,50.55
2024-04-01T09:16:40.820Z,51.67
2024-04-01T09:17:43.750Z,52.15
2024-04-01T09:18:45.587Z,53.18
2024-04-01T09:19:47.028Z,55.80
2024-04-01T09:20:49.314Z,55.88
2024-04-01T09:21:52.249Z,53.15
2024-04-01T09:22:53.974Z,54.27
2024-04-01T09:23:57.114Z,50.80
2024-04-01T09:25:00.215Z,49.35
2024-04-01T09:26:03.503Z,50.57
2024-04-01T09:27:05.381Z,48.92
2024-04-01T09:28:07.361Z,47.37
2024-04-01T09:29:11.639Z,52.25
2024-04-01T09:30:13.416Z,55.10
2024-04-01T09:31:15.548Z,54.85
2024-04-01T09:32:17.817Z,55.07
2024-04-01T09:33:21.149Z,53.05
2024-04-01T09:34:22.974Z,55.42
2024-04-01T09:35:25.947Z,53.15
2024-04-01T09:36:29.083Z,56.42
2024-04-01T09:37:31.676Z,53.13
2024-04-01T09:38:34.346Z,52.63
2024-04-01T09:39:36.765Z,55.10
2024-04-01T09:40:38.855Z,55.97
2024-04-01T09:41:42.673Z,57.53
2024-04-01T09:42:45.559Z,56.50
2024-04-01T09:43:51.882Z,57.65
2024-04-01T09:44:56.538Z,53.08
2024-04-01T09:46:02.799Z,54.80
2024-04-01T09:47:06.608Z,54.62
2024-04-01T09:48:09.511Z,58.83
2024-04-01T09:49:28.865Z,52.97
2024-04-01T09:50:33.332Z,56.02
2024-04-01T09:51:35.023Z,54.03
2024-04-01T09:52:37.210Z,65.93
2024-04-01T09:53:39.810Z,58.12
2024-04-01T09:54:41.393Z,56.28
2024-04-01T09:56:12.092Z,59.25
2024-04-01T09:57:55.927Z,58.00
2024-04-01T09:59:25.568Z,58.82
2024-04-01T10:00:39.671Z,59.22
2024-04-01T10:02:02.257Z,57.93
2024-04-01T10:03:39.461Z,55.98
2024-04-01T10:05:21.322Z,60.05
2024-04-01T10:07:10.641Z,59.45
2024-04-01T10:08:40.148Z,59.28
2024-04-01T10:10:17.264Z,60.62
2024-04-01T10:11:38.427Z,56.08
2024-04-01T10:13:22.708Z,58.98
2024-04-01T10:14:54.121Z,57.15
2024-04-01T10:16:17.073Z,61.88
2024-04-01T10:17:59.523Z,60.70
2024-04-01T10:19:42.255Z,56.65
2024-04-01T10:21:20.371Z,59.00
2024-04-01T10:22:49.219Z,60.70
2024-04-01T10:24:30.443Z,59.95
2024-04-01T10:26:13.421Z,61.92
2024-04-01T10:27:44.551Z,57.95
2024-04-01T10:29:50.216Z,62.25
2024-04-01T10:31:32.958Z,60.58
2024-04-01T10:33:14.307Z,56.70
2024-04-01T10:35:04.294Z,55.75
2024-04-01T10:36:26.851Z,62.95
2024-04-01T10:38:08.848Z,63.32
2024-04-01T10:39:50.080Z,64.05
2024-04-01T10:41:20.219Z,63.87
2024-04-01T10:43:06.965Z,60.43
2024-04-01T10:44:42.932Z,61.20
2024-04-01T10:46:17.247Z,61.43
2024-04-01T10:47:54.397Z,60.47
2024-04-01T10:49:23.456Z,64.02
2024-04-01T10:50:53.754Z,62.52
2024-04-01T10:52:31.144Z,63.67
2024-04-01T10:53:57.024Z,64.55
2024-04-01T10:55:20.043Z,59.63
2024-04-01T10:57:20.867Z,60.50
2024-04-01T10:58:51.412Z,63.30
2024-04-01T11:00:38.003Z,60.33
2024-04-01T11:02:00.310Z,61.37
2024-04-01T11:04:03.514Z,62.57
2024-04-01T11:05:28.005Z,66.53
2024-04-01T11:07:03.333Z,59.92
2024-04-01T11:08:20.165Z,58.53
2024-04-01T11:09:38.243Z,61.83
2024-04-01T11:10:48.636Z,60.02
2024-04-01T11:12:02.622Z,59.58
2024-04-01T11:13:07.074Z,60.35
2024-04-01T11:14:10.635Z,59.95
2024-04-01T11:15:15.150Z,59.22
2024-04-01T11:16:20.059Z,61.43
2024-04-01T11:17:25.005Z,64.73
2024-04-01T11:18:45.342Z,59.38
2024-04-01T11:20:21.341Z,62.78
2024-04-01T11:21:31.872Z,68.47
2024-04-01T11:22:50.778Z,62.17
2024-04-01T11:24:01.315Z,62.52
2024-04-01T11:25:14.096Z,63.50
2024-04-01T11:26:40.523Z,61.78
2024-04-01T11:28:18.399Z,61.65
2024-04-01T11:29:47.687Z,67.43
2024-04-01T11:31:04.332Z,63.23
2024-04-01T11:32:12.688Z,61.52
2024-04-01T11:33:18.839Z,63.78
2024-04-01T11:34:31.458Z,64.07
2024-04-01T11:35:46.073Z,69.92
2024-04-01T11:37:05.103Z,66.53
2024-04-01T11:38:23.980Z,62.18
2024-04-01T11:39:29.770Z,62.72
2024-04-01T11:40:35.568Z,63.70
2024-04-01T11:41:45.412Z,64.55
2024-04-01T11:42:55.255Z,61.43
2024-04-01T11:43:58.749Z,61.22
2024-04-01T11:45:06.957Z,61.62
2024-04-01T11:46:11.928Z,65.32
2024-04-01T11:47:17.367Z,64.37
2024-04-01T11:48:23.079Z,63.95
2024-04-01T11:49:39.579Z,63.62
2024-04-01T11:50:50.437Z,63.17
2024-04-01T11:51:53.458Z,58.52
2024-04-01T11:52:58.510Z,56.10
2024-04-01T11:54:00.401Z,60.00
2024-04-01T11:55:12.802Z,60.95
2024-04-01T11:56:14.451Z,63.28
2024-04-01T11:57:23.386Z,64.80
2024-04-01T11:58:27.739Z,57.67
2024-04-01T11:59:31.979Z,60.08
2024-04-01T12:00:52.033Z,65.10
2024-04-01T12:01:55.138Z,64.73
2024-04-01T12:02:58.549Z,57.20
2024-04-01T12:04:01.787Z,60.95
2024-04-01T12:05:05.813Z,59.33
2024-04-01T12:06:14.332Z,61.12
2024-04-01T12:07:16.011Z,61.37
2024-04-01T12:08:20.715Z,64.33
2024-04-01T12:09:23.751Z,62.37
2024-04-01T12:10:28.065Z,58.50
2024-04-01T12:11:32.243Z,61.35
2024-04-01T12:12:34.676Z,63.65
2024-04-01T12:13:41.491Z,62.02
2024-04-01T12:14:43.618Z,58.67
2024-04-01T12:15:45.612Z,63.50
2024-04-01T12:16:47.543Z,61.65
2024-04-01T12:17:50.823Z,60.73
2024-04-01T12:18:52.865Z,64.68
2024-04-01T12:19:57.973Z,64.70
2024-04-01T12:21:02.659Z,62.45
2024-04-01T12:22:05.072Z,61.00
2024-04-01T12:23:08.568Z,57.98
2024-04-01T12:24:11.990Z,64.40
2024-04-01T12:25:15.842Z,66.67
2024-04-01T12:26:18.748Z,61.23
2024-04-01T12:27:22.046Z,57.73
2024-04-01T12:28:27.944Z,60.75
2024-04-01T12:29:31.899Z,66.23
2024-04-01T12:30:38.080Z,62.38
2024-04-01T12:31:46.165Z,63.13
2024-04-01T12:32:50.210Z,61.62
2024-04-01T12:33:53.197Z,61.22
2024-04-01T12:34:55.862Z,62.65
2024-04-01T12:35:58.939Z,61.50
2024-04-01T12:37:04.477Z,58.58
2024-04-01T12:38:13.394Z,57.27
2024-04-01T12:39:16.372Z,59.67
2024-04-01T12:40:19.623Z,56.37
2024-04-01T12:41:22.541Z,59.40
2024-04-01T12:42:40.102Z,59.07
2024-04-01T12:43:42.028Z,59.92
2024-04-01T12:44:44.892Z,60.72
2024-04-01T12:45:47.710Z,63.55
2024-04-01T12:46:50.103Z,63.67
2024-04-01T12:47:53.194Z,61.32
2024-04-01T12:48:55.900Z,60.25
2024-04-01T12:50:02.794Z,56.93
2024-04-01T12:51:06.425Z,62.15
2024-04-01T12:52:15.244Z,61.40
2024-04-01T12:53:46.385Z,56.07
2024-04-01T12:55:08.859Z,60.38
2024-04-01T12:56:27.709Z,57.17
2024-04-01T12:57:51.430Z,57.23
2024-04-01T12:59:11.092Z,55.95
2024-04-01T13:00:35.192Z,61.13
2024-04-01T13:01:55.294Z,57.45
2024-04-01T13:03:22.415Z,62.93
2024-04-01T13:04:44.883Z,57.37
2024-04-01T13:05:55.012Z,59.52
2024-04-01T13:08:55.748Z,59.05
2024-04-01T13:10:03.632Z,60.67
2024-04-01T13:11:23.422Z,55.13
2024-04-01T13:12:45.393Z,53.88
2024-04-01T13:14:05.507Z,59.83
2024-04-01T13:15:16.836Z,65.00
2024-04-01T13:16:28.442Z,60.00
2024-04-01T13:17:45.549Z,60.38
2024-04-01T13:18:57.640Z,59.13
2024-04-01T13:20:06.251Z,57.17
2024-04-01T13:21:19.422Z,59.28
2024-04-01T13:22:32.942Z,61.82
2024-04-01T13:23:39.156Z,63.37
2024-04-01T13:24:50.128Z,60.37
2024-04-01T13:26:00.594Z,58.48
2024-04-01T13:27:12.358Z,58.67
2024-04-01T13:28:23.648Z,57.63
2024-04-01T13:29:36.351Z,58.87
2024-04-01T13:30:57.643Z,59.00
2024-04-01T13:32:13.782Z,63.65
2024-04-01T13:33:31.256Z,63.15
2024-04-01T13:34:46.680Z,54.55
2024-04-01T13:36:04.500Z,57.98
2024-04-01T13:37:23.859Z,55.52
2024-04-01T13:38:40.119Z,54.63
2024-04-01T13:40:00.256Z,53.18
2024-04-01T13:41:15.685Z,57.07
2024-04-01T13:42:31.154Z,55.90
2024-04-01T13:44:04.036Z,61.43
2024-04-01T13:45:24.860Z,58.90
2024-04-01T13:46:38.964Z,54.37
2024-04-01T13:48:00.903Z,57.10
2024-04-01T13:49:35.073Z,58.63
2024-04-01T13:50:49.115Z,57.42
2024-04-01T13:52:10.229Z,61.22
2024-04-01T13:53:35.838Z,58.30
2024-04-01T13:54:40.026Z,59.22
2024-04-01T13:55:58.754Z,57.25
2024-04-01T13:57:22.797Z,60.08
2024-04-01T13:58:42.067Z,63.62
2024-04-01T13:59:49.455Z,58.83
2024-04-01T14:01:04.095Z,58.45
2024-04-01T14:02:23.608Z,58.33
2024-04-01T14:03:38.193Z,57.32
2024-04-01T14:04:53.436Z,58.87
2024-04-01T14:06:20.546Z,57.20
2024-04-01T14:07:33.757Z,55.67
2024-04-01T14:08:44.482Z,57.45
2024-04-01T14:10:03.153Z,57.90
2024-04-01T14:11:17.985Z,58.75
2024-04-01T14:12:36.285Z,64.00
2024-04-01T14:13:54.331Z,61.55
2024-04-01T14:15:37.605Z,56.27
2024-04-01T14:16:50.337Z,58.32
2024-04-01T14:18:08.660Z,53.42
2024-04-01T14:19:28.401Z,57.78
2024-04-01T14:20:35.922Z,59.73
2024-04-01T14:21:37.594Z,60.45
2024-04-01T14:22:40.426Z,60.93
2024-04-01T14:23:42.248Z,60.23